Time;durP1;ratioP1;P1;durP2;ratioP2;P2;SDS_P1;SDS_P2;PMS_P1;PMS_P2;Temp;Humidity;BMP_temperature;BMP_pressure;BME280_temperature;BME280_humidity;BME280_pressure;Samples;Min_cycle;Max_cycle;Signal;HPM_P1;HPM_P2
2021/07/10 00:02:05;;;;;;;5.40;3.70;;;13.80;91.20;;;;;;4942171;28;20518;-72
2021/07/10 00:04:32;;;;;;;3.83;3.53;;;13.80;91.10;;;;;;4930084;28;20036;-72
2021/07/10 00:06:58;;;;;;;3.90;3.40;;;13.80;91.10;;;;;;4945004;28;20023;-72
2021/07/10 00:09:24;;;;;;;5.80;3.60;;;13.80;91.10;;;;;;4951609;28;20034;-72
2021/07/10 00:11:51;;;;;;;5.07;3.40;;;13.80;90.80;;;;;;4945358;28;20034;-72
2021/07/10 00:14:18;;;;;;;4.18;3.40;;;13.80;90.50;;;;;;4959992;28;20164;-73
2021/07/10 00:16:44;;;;;;;3.80;3.38;;;13.70;90.50;;;;;;4940564;28;20538;-72
2021/07/10 00:19:10;;;;;;;5.05;3.53;;;13.70;90.60;;;;;;4948448;28;20037;-73
2021/07/10 00:21:36;;;;;;;4.93;3.63;;;13.60;90.60;;;;;;4943958;28;20395;-72
2021/07/10 00:24:02;;;;;;;4.00;3.42;;;13.50;90.70;;;;;;4953778;28;20042;-72
2021/07/10 00:26:28;;;;;;;4.07;3.65;;;13.50;90.70;;;;;;4942373;28;20043;-73
2021/07/10 00:28:54;;;;;;;4.57;3.55;;;13.60;90.80;;;;;;4950817;28;20167;-72
2021/07/10 00:31:20;;;;;;;6.15;3.20;;;13.50;90.80;;;;;;4949240;28;20118;-72
2021/07/10 00:33:46;;;;;;;5.75;4.32;;;13.40;91.00;;;;;;4945348;28;20490;-73
2021/07/10 00:36:16;;;;;;;4.55;3.25;;;13.40;91.20;;;;;;4940473;28;20027;-72
2021/07/10 00:38:42;;;;;;;3.70;3.30;;;13.40;91.10;;;;;;4944830;28;20033;-73
2021/07/10 00:41:07;;;;;;;6.00;4.20;;;13.30;91.10;;;;;;4949294;28;20032;-72
2021/07/10 00:43:33;;;;;;;40.38;5.82;;;13.30;91.20;;;;;;4952136;28;20026;-73
2021/07/10 00:45:59;;;;;;;5.03;4.00;;;13.30;91.70;;;;;;4962185;28;20397;-72
2021/07/10 00:48:24;;;;;;;7.20;3.70;;;13.30;91.50;;;;;;4948843;28;20030;-73
2021/07/10 00:50:50;;;;;;;4.90;3.53;;;13.30;91.40;;;;;;4947621;28;20466;-72
2021/07/10 00:53:16;;;;;;;6.72;3.40;;;13.40;91.50;;;;;;4937110;28;21162;-72
2021/07/10 00:55:42;;;;;;;5.07;3.25;;;13.40;91.30;;;;;;4953174;28;20039;-72
2021/07/10 00:58:10;;;;;;;3.95;3.55;;;13.40;91.40;;;;;;4964694;28;20022;-72
2021/07/10 01:00:36;;;;;;;5.10;3.83;;;13.40;91.60;;;;;;4950291;28;20036;-72
2021/07/10 01:03:05;;;;;;;6.78;3.47;;;13.30;91.50;;;;;;4954410;28;20030;-72
2021/07/10 01:05:34;;;;;;;14.32;4.03;;;13.30;91.70;;;;;;4950351;28;20039;-72
2021/07/10 01:08:00;;;;;;;8.60;3.13;;;13.20;91.40;;;;;;4957626;28;20031;-72
2021/07/10 01:10:26;;;;;;;4.80;3.17;;;13.20;91.30;;;;;;4954124;28;20080;-72
2021/07/10 01:13:04;;;;;;;12.25;3.35;;;13.30;91.40;;;;;;4956721;28;20030;-72
2021/07/10 01:15:30;;;;;;;7.15;3.97;;;13.20;91.50;;;;;;4949893;28;20039;-73
2021/07/10 01:17:59;;;;;;;22.30;5.15;;;13.20;91.60;;;;;;4942681;28;20525;-72
2021/07/10 01:20:28;;;;;;;10.88;4.32;;;13.00;91.60;;;;;;4946686;28;20031;-72
2021/07/10 01:22:56;;;;;;;7.93;3.25;;;13.00;91.60;;;;;;4947584;28;20027;-72
2021/07/10 01:25:24;;;;;;;7.25;3.85;;;13.10;91.60;;;;;;4941746;28;20134;-72
2021/07/10 01:27:51;;;;;;;18.45;3.63;;;13.10;91.50;;;;;;4947499;28;20085;-72
2021/07/10 01:30:21;;;;;;;3.50;3.20;;;13.10;91.50;;;;;;4940205;28;20059;-73
2021/07/10 01:32:50;;;;;;;7.28;3.20;;;13.10;91.40;;;;;;4953785;28;20323;-72
2021/07/10 01:35:25;;;;;;;36.55;4.22;;;13.10;90.90;;;;;;4961009;28;20020;-72
2021/07/10 01:37:51;;;;;;;4.88;2.83;;;13.00;90.70;;;;;;4946450;28;20617;-73
2021/07/10 01:40:18;;;;;;;4.47;3.10;;;12.90;90.80;;;;;;4957374;28;20542;-73
2021/07/10 01:42:44;;;;;;;3.67;2.97;;;12.90;90.70;;;;;;4943758;28;20038;-73
2021/07/10 01:45:12;;;;;;;4.78;3.50;;;12.90;90.70;;;;;;4945101;28;20031;-72
2021/07/10 01:47:38;;;;;;;3.28;2.90;;;12.90;90.70;;;;;;4953365;28;22139;-72
2021/07/10 01:50:05;;;;;;;4.30;3.42;;;12.90;90.70;;;;;;4944395;28;20162;-72
2021/07/10 01:52:31;;;;;;;5.13;3.45;;;12.80;91.10;;;;;;4938725;28;20561;-73
2021/07/10 01:54:57;;;;;;;3.63;3.22;;;12.70;90.70;;;;;;4947894;28;20117;-73
2021/07/10 01:57:23;;;;;;;5.13;3.35;;;12.60;91.00;;;;;;4954732;28;20431;-72
2021/07/10 01:59:48;;;;;;;4.63;3.70;;;12.60;91.30;;;;;;4960589;28;20123;-72
2021/07/10 02:02:14;;;;;;;4.53;3.45;;;12.60;91.30;;;;;;4944039;28;20036;-73
2021/07/10 02:04:48;;;;;;;5.55;3.28;;;12.60;91.30;;;;;;4949299;28;20019;-73
2021/07/10 02:07:14;;;;;;;4.85;3.10;;;12.60;91.40;;;;;;4955761;28;20023;-73
2021/07/10 02:09:40;;;;;;;3.28;2.90;;;12.60;91.20;;;;;;4932684;28;20115;-74
2021/07/10 02:12:06;;;;;;;4.90;3.10;;;12.60;91.10;;;;;;4953339;28;20109;-73
2021/07/10 02:14:32;;;;;;;4.38;3.40;;;12.60;90.70;;;;;;4963988;28;20039;-73
2021/07/10 02:16:58;;;;;;;5.25;3.05;;;12.50;91.00;;;;;;4967688;28;20038;-73
2021/07/10 02:19:23;;;;;;;4.22;3.33;;;12.50;91.00;;;;;;4941694;28;20623;-72
2021/07/10 02:21:49;;;;;;;3.30;2.85;;;12.50;91.20;;;;;;4951320;28;20027;-72
2021/07/10 02:24:15;;;;;;;6.75;3.40;;;12.50;91.40;;;;;;4951339;28;20591;-74
2021/07/10 02:26:41;;;;;;;5.05;3.60;;;12.60;91.50;;;;;;4943558;28;20082;-73
2021/07/10 02:29:07;;;;;;;11.63;3.40;;;12.60;91.40;;;;;;4955544;28;20031;-73
2021/07/10 02:31:36;;;;;;;27.83;4.13;;;12.60;91.50;;;;;;4953621;28;20043;-73
2021/07/10 02:34:03;;;;;;;8.40;3.50;;;12.60;91.90;;;;;;4950161;28;20087;-73
2021/07/10 02:36:29;;;;;;;19.15;5.13;;;12.60;91.80;;;;;;4951369;28;20032;-73
2021/07/10 02:38:55;;;;;;;10.30;4.07;;;12.60;91.80;;;;;;4948382;28;20063;-73
2021/07/10 02:41:21;;;;;;;4.82;3.30;;;12.50;92.00;;;;;;4954315;28;20039;-73
2021/07/10 02:43:47;;;;;;;8.43;3.53;;;12.60;92.10;;;;;;4955304;28;20023;-74
2021/07/10 02:46:13;;;;;;;16.77;3.70;;;12.60;92.30;;;;;;4956141;28;20119;-73
2021/07/10 02:48:42;;;;;;;5.93;3.08;;;12.60;92.40;;;;;;4952290;29;20114;-73
2021/07/10 02:51:08;;;;;;;6.53;3.30;;;12.60;92.50;;;;;;4968789;28;20749;-74
2021/07/10 02:53:33;;;;;;;6.55;3.50;;;12.60;92.60;;;;;;4956349;28;20035;-73
2021/07/10 02:55:59;;;;;;;91.03;58.17;;;12.60;92.70;;;;;;4963873;28;20031;-73
2021/07/10 02:58:25;;;;;;;11.95;4.50;;;12.50;92.90;;;;;;4955573;28;20050;-72
2021/07/10 03:00:51;;;;;;;35.45;6.57;;;12.60;92.90;;;;;;4948234;28;20070;-74
2021/07/10 03:03:16;;;;;;;10.07;3.20;;;12.60;92.90;;;;;;4951866;28;20031;-73
2021/07/10 03:05:42;;;;;;;15.63;3.35;;;12.60;92.80;;;;;;4955619;28;20032;-73
2021/07/10 03:08:08;;;;;;;16.90;3.70;;;12.50;92.90;;;;;;4950146;28;20031;-73
2021/07/10 03:10:33;;;;;;;42.83;6.90;;;12.40;92.90;;;;;;4957368;28;20031;-72
2021/07/10 03:12:59;;;;;;;75.03;5.45;;;12.40;93.00;;;;;;4958181;28;20099;-73
2021/07/10 03:15:27;;;;;;;32.40;6.25;;;12.30;93.20;;;;;;4952341;28;20034;-73
2021/07/10 03:17:53;;;;;;;21.80;4.30;;;12.30;93.30;;;;;;4953136;28;20082;-72
2021/07/10 03:20:22;;;;;;;46.88;5.55;;;12.20;93.20;;;;;;4951632;29;20038;-72
2021/07/10 03:22:48;;;;;;;64.50;6.05;;;12.10;93.10;;;;;;4960663;28;20513;-72
2021/07/10 03:25:15;;;;;;;21.90;3.55;;;12.10;93.30;;;;;;4949899;28;20042;-73
2021/07/10 03:27:42;;;;;;;5.20;2.60;;;12.10;93.40;;;;;;4954927;28;20023;-72
2021/07/10 03:30:10;;;;;;;5.70;2.58;;;12.10;93.40;;;;;;4952019;28;20031;-71
2021/07/10 03:32:38;;;;;;;7.35;3.40;;;12.10;93.50;;;;;;4950118;28;20050;-73
2021/07/10 03:35:07;;;;;;;2.58;2.40;;;12.20;93.40;;;;;;4955015;28;20121;-73
2021/07/10 03:37:33;;;;;;;6.80;2.45;;;12.20;93.30;;;;;;4955528;28;20031;-73
2021/07/10 03:39:59;;;;;;;2.67;2.17;;;12.30;93.20;;;;;;4955316;28;20389;-73
2021/07/10 03:42:24;;;;;;;5.30;2.20;;;12.30;93.10;;;;;;4958162;28;20082;-73
2021/07/10 03:44:50;;;;;;;4.68;2.50;;;12.40;92.90;;;;;;4950504;28;20054;-73
2021/07/10 03:47:16;;;;;;;7.25;2.13;;;12.30;92.30;;;;;;4967615;28;20027;-72
2021/07/10 03:49:42;;;;;;;3.22;2.92;;;12.30;92.10;;;;;;4959948;28;20566;-73
2021/07/10 03:52:07;;;;;;;1.98;1.88;;;12.30;91.80;;;;;;4953223;28;20048;-72
2021/07/10 03:54:33;;;;;;;2.10;2.00;;;12.30;91.80;;;;;;4949923;28;20031;-73
2021/07/10 03:56:59;;;;;;;20.48;2.75;;;12.30;92.20;;;;;;4964156;28;20022;-72
2021/07/10 03:59:25;;;;;;;2.53;2.30;;;12.30;91.90;;;;;;4948465;28;20383;-73
2021/07/10 04:01:51;;;;;;;2.63;2.42;;;12.30;91.50;;;;;;4955553;28;20065;-73
2021/07/10 04:04:16;;;;;;;2.40;2.20;;;12.30;91.40;;;;;;4955472;28;20653;-72
2021/07/10 04:06:42;;;;;;;2.55;2.35;;;12.30;91.30;;;;;;4951092;29;20397;-72
2021/07/10 04:09:08;;;;;;;2.78;2.58;;;12.30;91.30;;;;;;4953958;28;20538;-73
2021/07/10 04:11:34;;;;;;;3.70;2.78;;;12.30;91.60;;;;;;4958059;28;20038;-72
2021/07/10 04:13:59;;;;;;;2.55;1.95;;;12.30;91.60;;;;;;4949046;28;20086;-72
2021/07/10 04:16:25;;;;;;;1.98;1.85;;;12.10;91.70;;;;;;4949845;28;20047;-72
2021/07/10 04:18:51;;;;;;;2.10;2.00;;;12.10;91.80;;;;;;4950599;29;20446;-71
2021/07/10 04:21:17;;;;;;;5.88;2.67;;;12.10;92.00;;;;;;4953454;28;20489;-72
2021/07/10 04:23:42;;;;;;;55.50;4.70;;;12.10;92.00;;;;;;4957525;28;20038;-72
2021/07/10 04:26:08;;;;;;;80.00;8.98;;;12.10;92.40;;;;;;4954314;28;20147;-72
2021/07/10 04:28:34;;;;;;;59.75;6.10;;;12.10;92.80;;;;;;4951627;28;20023;-71
2021/07/10 04:31:00;;;;;;;158.32;11.95;;;12.10;92.90;;;;;;4950806;28;20031;-72
2021/07/10 04:33:26;;;;;;;206.18;15.75;;;12.00;93.00;;;;;;4951524;28;20382;-73
2021/07/10 04:35:52;;;;;;;179.00;10.40;;;12.00;93.20;;;;;;4954180;28;20031;-71
2021/07/10 04:38:19;;;;;;;29.25;4.30;;;12.00;93.60;;;;;;4953463;28;20023;-75
2021/07/10 04:40:45;;;;;;;64.45;6.38;;;12.10;93.60;;;;;;4959917;28;20034;-72
2021/07/10 04:43:11;;;;;;;62.25;6.57;;;12.10;93.70;;;;;;4947954;28;20116;-72
2021/07/10 04:45:37;;;;;;;123.70;8.57;;;12.10;93.70;;;;;;4951216;28;20389;-72
2021/07/10 04:48:03;;;;;;;138.05;11.20;;;12.10;93.70;;;;;;4955074;28;20033;-72
2021/07/10 04:50:29;;;;;;;104.75;9.15;;;12.10;93.80;;;;;;4955435;28;20035;-71
2021/07/10 04:52:55;;;;;;;104.68;9.68;;;12.10;93.90;;;;;;4953954;28;20027;-73
2021/07/10 04:55:21;;;;;;;152.32;8.63;;;12.10;94.10;;;;;;4955690;28;20035;-72
2021/07/10 04:57:47;;;;;;;127.63;8.20;;;12.10;94.20;;;;;;4952760;28;20027;-72
2021/07/10 05:00:14;;;;;;;57.10;6.68;;;12.10;94.10;;;;;;4949375;28;20558;-73
2021/07/10 05:02:42;;;;;;;41.80;4.50;;;12.10;94.20;;;;;;4954345;28;20039;-73
2021/07/10 05:05:08;;;;;;;3.88;3.50;;;12.10;94.30;;;;;;4953059;28;20020;-73
2021/07/10 05:07:34;;;;;;;3.60;3.15;;;12.30;94.30;;;;;;4948221;28;20503;-73
2021/07/10 05:10:00;;;;;;;22.40;4.90;;;12.30;94.20;;;;;;4950811;29;20055;-73
2021/07/10 05:12:26;;;;;;;4.95;3.38;;;12.40;94.30;;;;;;4949929;28;20394;-73
2021/07/10 05:14:52;;;;;;;27.33;5.05;;;12.40;94.30;;;;;;4952856;28;20027;-73
2021/07/10 05:17:19;;;;;;;8.75;3.10;;;12.50;94.30;;;;;;4950006;28;20701;-72
2021/07/10 05:19:46;;;;;;;16.48;4.53;;;12.60;94.00;;;;;;4948476;28;20038;-72
2021/07/10 05:22:12;;;;;;;9.95;3.58;;;12.70;93.80;;;;;;4949818;29;20063;-72
2021/07/10 05:24:38;;;;;;;22.85;5.07;;;12.80;93.90;;;;;;4948633;28;20024;-71
2021/07/10 05:27:04;;;;;;;6.90;3.50;;;12.90;94.00;;;;;;4954524;28;20507;-72
2021/07/10 05:29:30;;;;;;;4.03;3.63;;;13.00;93.90;;;;;;4958128;28;20028;-72
2021/07/10 05:31:56;;;;;;;3.92;3.58;;;13.00;93.80;;;;;;4959492;28;20414;-71
2021/07/10 05:34:22;;;;;;;5.65;3.53;;;13.10;93.60;;;;;;4954610;28;20114;-72
2021/07/10 05:36:48;;;;;;;7.65;3.72;;;13.10;93.40;;;;;;4953859;28;20421;-72
2021/07/10 05:39:14;;;;;;;18.88;4.05;;;13.20;93.30;;;;;;4954921;28;20401;-72
2021/07/10 05:41:40;;;;;;;17.80;4.30;;;13.20;93.30;;;;;;4954008;28;20019;-72
2021/07/10 05:44:06;;;;;;;21.40;4.97;;;13.20;93.30;;;;;;4950677;28;20083;-71
2021/07/10 05:46:32;;;;;;;4.18;3.78;;;13.20;93.40;;;;;;4964735;28;20019;-72
2021/07/10 05:48:58;;;;;;;4.45;3.85;;;13.30;93.30;;;;;;4949524;29;20043;-69
2021/07/10 05:51:24;;;;;;;5.75;4.38;;;13.40;93.50;;;;;;4963989;28;20066;-71
2021/07/10 05:53:49;;;;;;;11.13;4.82;;;13.30;93.40;;;;;;4953632;28;20220;-70
2021/07/10 05:56:15;;;;;;;48.22;8.30;;;13.30;93.60;;;;;;4954090;28;20078;-71
2021/07/10 05:58:41;;;;;;;5.88;3.80;;;13.30;93.60;;;;;;4951903;28;20027;-72
2021/07/10 06:01:07;;;;;;;6.90;4.55;;;13.40;93.70;;;;;;4952927;28;20062;-71
2021/07/10 06:03:33;;;;;;;29.05;5.88;;;13.50;93.60;;;;;;4955326;28;20058;-71
2021/07/10 06:05:58;;;;;;;27.95;5.25;;;13.60;93.80;;;;;;4951773;28;20050;-71
2021/07/10 06:08:24;;;;;;;16.83;5.38;;;13.60;93.80;;;;;;4960881;28;20027;-71
2021/07/10 06:10:50;;;;;;;30.88;6.38;;;13.70;94.00;;;;;;4957110;28;20110;-70
2021/07/10 06:13:16;;;;;;;6.57;5.22;;;13.70;94.30;;;;;;4957483;28;20073;-70
2021/07/10 06:15:42;;;;;;;9.07;5.90;;;13.80;94.20;;;;;;4949251;29;20024;-71
2021/07/10 06:18:08;;;;;;;16.88;5.65;;;13.90;94.10;;;;;;4952578;28;20061;-70
2021/07/10 06:20:36;;;;;;;8.50;5.82;;;14.10;94.60;;;;;;4963462;28;20026;-71
2021/07/10 06:23:05;;;;;;;12.98;6.85;;;14.10;94.40;;;;;;4954834;28;20552;-71
2021/07/10 06:25:35;;;;;;;9.43;6.95;;;14.30;94.80;;;;;;4962178;28;20022;-71
2021/07/10 06:28:06;;;;;;;18.33;7.75;;;14.30;94.80;;;;;;4955082;28;20031;-72
2021/07/10 06:30:32;;;;;;;10.48;7.57;;;14.50;95.00;;;;;;4956530;28;20110;-71
2021/07/10 06:32:59;;;;;;;11.60;8.35;;;14.60;95.00;;;;;;4954727;28;20030;-72
2021/07/10 06:35:24;;;;;;;11.60;8.57;;;14.80;95.10;;;;;;4950281;28;20136;-71
2021/07/10 06:37:50;;;;;;;10.82;8.32;;;14.90;95.40;;;;;;4954280;28;20031;-71
2021/07/10 06:40:17;;;;;;;11.32;8.98;;;15.00;94.90;;;;;;4953207;28;20027;-72
2021/07/10 06:42:43;;;;;;;12.70;9.10;;;15.20;95.00;;;;;;4950309;29;20026;-71
2021/07/10 06:45:12;;;;;;;11.23;8.32;;;15.30;94.70;;;;;;4953347;29;20030;-72
2021/07/10 06:47:38;;;;;;;11.63;8.20;;;15.30;94.20;;;;;;4955181;28;20047;-72
2021/07/10 06:50:06;;;;;;;13.63;9.60;;;15.40;94.30;;;;;;4955579;28;20057;-72
2021/07/10 06:52:32;;;;;;;13.68;9.43;;;15.60;94.40;;;;;;4953129;28;20037;-71
2021/07/10 06:54:58;;;;;;;12.38;8.63;;;15.80;94.30;;;;;;4950405;29;20035;-72
2021/07/10 06:57:24;;;;;;;14.45;9.73;;;16.00;94.30;;;;;;4959794;28;20573;-71
2021/07/10 06:59:49;;;;;;;15.15;9.80;;;16.10;94.00;;;;;;4958104;28;20046;-71
2021/07/10 07:02:15;;;;;;;13.68;9.85;;;16.30;94.10;;;;;;4952866;28;20036;-72
2021/07/10 07:04:44;;;;;;;13.30;9.18;;;16.30;93.90;;;;;;4957087;29;20279;-73
2021/07/10 07:07:10;;;;;;;12.43;8.63;;;16.40;93.80;;;;;;4951298;28;20031;-72
2021/07/10 07:09:36;;;;;;;15.27;9.48;;;16.50;91.80;;;;;;4956641;28;20551;-72
2021/07/10 07:12:02;;;;;;;16.48;8.95;;;16.60;91.80;;;;;;4953153;28;20042;-72
2021/07/10 07:14:28;;;;;;;13.18;8.65;;;16.70;92.50;;;;;;4953819;28;20031;-72
2021/07/10 07:16:58;;;;;;;11.43;8.63;;;16.90;92.60;;;;;;4959001;28;20681;-73
2021/07/10 07:19:26;;;;;;;13.55;8.70;;;17.00;91.00;;;;;;4953350;29;20027;-72
2021/07/10 07:21:52;;;;;;;15.43;8.32;;;17.00;91.10;;;;;;4957992;28;20018;-72
2021/07/10 07:24:18;;;;;;;10.80;7.85;;;17.00;90.30;;;;;;4956980;28;20049;-73
2021/07/10 07:26:44;;;;;;;11.90;8.32;;;17.10;90.00;;;;;;4950901;28;20038;-72
2021/07/10 07:29:10;;;;;;;11.35;8.35;;;17.20;89.80;;;;;;4955313;28;20043;-73
2021/07/10 07:31:35;;;;;;;12.85;8.20;;;17.20;90.00;;;;;;4951628;28;20039;-72
2021/07/10 07:34:01;;;;;;;11.45;8.10;;;17.20;90.10;;;;;;4952213;28;20051;-72
2021/07/10 07:36:27;;;;;;;14.40;7.50;;;17.30;89.40;;;;;;4952456;28;20035;-72
2021/07/10 07:38:53;;;;;;;11.23;8.07;;;17.50;89.50;;;;;;4948842;28;20030;-72
2021/07/10 07:41:22;;;;;;;12.85;9.05;;;17.60;88.90;;;;;;4946579;28;20409;-73
2021/07/10 07:43:48;;;;;;;12.38;8.43;;;17.50;88.50;;;;;;4951590;28;20180;-72
2021/07/10 07:46:14;;;;;;;8.55;6.68;;;17.70;89.10;;;;;;4951546;29;20048;-73
2021/07/10 07:48:43;;;;;;;7.78;6.28;;;17.70;87.30;;;;;;4950558;29;20602;-73
2021/07/10 07:51:15;;;;;;;7.50;5.78;;;17.80;88.10;;;;;;4948571;28;20035;-72
2021/07/10 07:53:43;;;;;;;10.90;8.30;;;17.90;88.50;;;;;;4953953;28;20086;-72
2021/07/10 07:56:09;;;;;;;8.68;7.15;;;18.10;88.60;;;;;;4954453;28;20498;-72
2021/07/10 07:58:35;;;;;;;9.52;7.35;;;18.10;88.10;;;;;;4952252;28;20108;-73
2021/07/10 08:01:01;;;;;;;10.23;6.88;;;18.10;85.20;;;;;;4949495;28;20058;-73
2021/07/10 08:03:27;;;;;;;8.75;7.30;;;18.20;87.40;;;;;;4951245;28;20374;-72
2021/07/10 08:05:53;;;;;;;9.32;7.35;;;18.30;87.40;;;;;;4949436;28;20031;-72
2021/07/10 08:08:19;;;;;;;7.68;6.75;;;18.30;85.30;;;;;;4963021;28;20019;-73
2021/07/10 08:10:44;;;;;;;7.50;6.55;;;18.30;86.60;;;;;;4947512;28;20376;-72
2021/07/10 08:13:10;;;;;;;10.25;6.85;;;18.30;82.90;;;;;;4952354;28;20031;-72
2021/07/10 08:15:36;;;;;;;9.48;5.88;;;18.30;85.80;;;;;;4948011;28;20079;-72
2021/07/10 08:18:03;;;;;;;8.43;6.70;;;18.30;84.80;;;;;;4950884;28;20445;-73
2021/07/10 08:20:28;;;;;;;9.85;6.60;;;18.40;84.10;;;;;;4961017;28;20395;-71
2021/07/10 08:22:55;;;;;;;11.10;7.05;;;18.40;83.20;;;;;;4951577;28;20022;-73
2021/07/10 08:25:21;;;;;;;9.63;7.43;;;18.50;83.00;;;;;;4945256;28;20034;-72
2021/07/10 08:27:48;;;;;;;9.02;6.75;;;18.60;85.60;;;;;;4949039;28;20110;-72
2021/07/10 08:30:15;;;;;;;9.07;6.53;;;18.70;85.10;;;;;;4959281;28;20027;-73
2021/07/10 08:32:43;;;;;;;8.63;6.82;;;18.70;83.60;;;;;;4951244;28;20035;-71
2021/07/10 08:35:10;;;;;;;8.33;6.10;;;18.80;86.10;;;;;;4947587;28;20574;-73
2021/07/10 08:37:35;;;;;;;7.55;6.40;;;18.80;84.50;;;;;;4955105;28;20062;-72
2021/07/10 08:40:03;;;;;;;6.93;6.00;;;19.00;84.80;;;;;;4954613;28;20065;-72
2021/07/10 08:42:28;;;;;;;7.03;5.77;;;18.90;83.20;;;;;;4955939;28;20019;-73
2021/07/10 08:44:55;;;;;;;6.82;5.30;;;18.90;81.20;;;;;;4944395;28;20290;-72
2021/07/10 08:47:22;;;;;;;7.40;5.93;;;19.10;81.90;;;;;;4957824;28;20023;-73
2021/07/10 08:49:48;;;;;;;9.20;5.53;;;19.20;82.10;;;;;;4952995;28;20051;-72
2021/07/10 08:52:15;;;;;;;6.13;5.15;;;19.20;82.10;;;;;;4959042;28;20037;-72
2021/07/10 08:54:40;;;;;;;6.55;5.55;;;19.30;79.00;;;;;;4943614;28;20024;-73
2021/07/10 08:57:07;;;;;;;7.18;5.28;;;19.40;82.50;;;;;;4960175;28;20034;-71
2021/07/10 08:59:36;;;;;;;8.40;5.72;;;19.50;78.40;;;;;;4949690;29;20561;-72
2021/07/10 09:02:02;;;;;;;7.05;5.45;;;19.50;81.00;;;;;;4949401;28;20090;-72
2021/07/10 09:04:28;;;;;;;9.25;5.70;;;19.60;80.50;;;;;;4963220;28;20114;-72
2021/07/10 09:06:54;;;;;;;8.05;5.50;;;19.80;79.60;;;;;;4958181;28;20422;-71
2021/07/10 09:09:43;;;;;;;8.15;5.10;;;19.80;77.60;;;;;;4958243;28;20135;-72
2021/07/10 09:12:10;;;;;;;7.53;6.70;;;19.80;77.40;;;;;;4961538;28;20022;-72
2021/07/10 09:14:36;;;;;;;8.95;6.22;;;19.80;78.60;;;;;;4953956;29;20525;-72
2021/07/10 09:17:19;;;;;;;9.20;6.00;;;19.80;78.80;;;;;;4955160;28;20023;-74
2021/07/10 09:19:46;;;;;;;7.38;5.70;;;19.90;79.50;;;;;;4949748;28;20019;-71
2021/07/10 09:22:22;;;;;;;5.95;4.68;;;20.10;79.50;;;;;;4958680;28;20114;-72
2021/07/10 09:24:49;;;;;;;7.15;5.50;;;20.20;78.90;;;;;;4953564;28;20034;-72
2021/07/10 09:27:15;;;;;;;7.63;5.13;;;20.20;77.50;;;;;;4959430;28;20015;-72
2021/07/10 09:29:43;;;;;;;10.18;6.47;;;20.30;77.30;;;;;;4948740;29;20442;-72
2021/07/10 09:32:11;;;;;;;8.13;5.50;;;20.30;78.20;;;;;;4951592;28;20123;-72
2021/07/10 09:34:39;;;;;;;;;;;20.30;76.70;;;;;;4959083;28;20034;-72
2021/07/10 09:37:10;;;;;;;7.72;5.55;;;20.20;73.60;;;;;;4959083;28;19918;-72
2021/07/10 09:39:45;;;;;;;6.35;5.45;;;20.20;75.70;;;;;;4954623;28;20525;-71
2021/07/10 09:42:15;;;;;;;7.57;6.00;;;20.30;77.80;;;;;;4960885;28;20114;-73
2021/07/10 09:44:49;;;;;;;7.95;5.53;;;20.50;77.00;;;;;;4956578;28;20456;-72
2021/07/10 09:47:24;;;;;;;7.55;5.35;;;20.40;73.40;;;;;;4955423;28;20027;-72
2021/07/10 09:49:50;;;;;;;6.30;4.90;;;20.40;74.10;;;;;;4949762;28;20031;-72
2021/07/10 09:52:22;;;;;;;3.65;3.22;;;20.40;72.30;;;;;;4954203;28;20054;-72
2021/07/10 09:55:04;;;;;;;5.25;4.75;;;20.50;70.60;;;;;;4957617;28;20088;-71
2021/07/10 09:57:32;;;;;;;4.60;4.20;;;20.50;73.50;;;;;;4956512;28;20019;-72
2021/07/10 10:00:07;;;;;;;;;;;20.50;70.70;;;;;;4960487;28;20034;-72
2021/07/10 10:02:44;;;;;;;6.07;3.83;;;20.60;76.30;;;;;;4953437;28;19915;-72
2021/07/10 10:05:12;;;;;;;3.05;2.80;;;20.70;71.70;;;;;;4954111;28;20027;-73
2021/07/10 10:07:59;;;;;;;4.78;4.00;;;20.60;68.80;;;;;;4953740;28;20081;-72
2021/07/10 10:10:34;;;;;;;4.32;3.33;;;20.60;69.30;;;;;;4952332;28;20051;-72
2021/07/10 10:13:08;;;;;;;4.30;3.90;;;20.70;70.10;;;;;;4957488;28;20030;-72
2021/07/10 10:15:37;;;;;;;5.15;3.72;;;20.80;71.80;;;;;;4964517;28;20023;-72
2021/07/10 10:18:03;;;;;;;6.95;3.88;;;20.90;71.20;;;;;;4951269;29;20038;-72
2021/07/10 10:20:30;;;;;;;4.70;3.75;;;21.00;68.60;;;;;;4952703;29;20773;-72
2021/07/10 10:22:58;;;;;;;4.95;4.45;;;21.00;69.60;;;;;;4952314;29;20039;-71
2021/07/10 10:25:24;;;;;;;4.68;4.18;;;21.00;72.80;;;;;;4953662;28;20219;-72
2021/07/10 10:27:52;;;;;;;5.50;3.63;;;21.00;69.20;;;;;;4953876;28;20109;-72
2021/07/10 10:30:19;;;;;;;5.38;4.30;;;21.00;72.60;;;;;;4959453;28;20707;-72
2021/07/10 10:32:45;;;;;;;4.13;3.72;;;21.10;70.90;;;;;;4958256;28;20057;-71
2021/07/10 10:35:12;;;;;;;4.43;3.30;;;21.20;70.50;;;;;;4958615;28;20039;-72
2021/07/10 10:37:39;;;;;;;3.05;2.83;;;21.30;68.00;;;;;;4952365;29;20506;-72
2021/07/10 10:40:10;;;;;;;3.17;2.88;;;21.30;65.10;;;;;;4952167;28;20039;-72
2021/07/10 10:42:37;;;;;;;4.75;3.55;;;21.30;67.10;;;;;;4950997;28;22646;-72
2021/07/10 10:45:04;;;;;;;3.72;3.38;;;21.20;65.90;;;;;;4955526;28;20478;-72
2021/07/10 10:47:45;;;;;;;4.10;3.70;;;21.20;66.80;;;;;;4952773;28;20537;-73
2021/07/10 10:50:19;;;;;;;3.60;3.15;;;21.10;67.70;;;;;;4958540;28;20037;-72
2021/07/10 10:52:48;;;;;;;4.80;3.08;;;21.20;67.60;;;;;;4953133;29;20035;-73
2021/07/10 10:55:15;;;;;;;3.47;2.90;;;21.20;69.30;;;;;;4953045;28;20102;-73
2021/07/10 10:57:46;;;;;;;3.50;3.20;;;21.40;68.90;;;;;;4953491;29;20019;-73
2021/07/10 11:00:17;;;;;;;4.60;3.30;;;21.40;69.60;;;;;;4956566;28;20517;-73
2021/07/10 11:02:52;;;;;;;5.53;3.33;;;21.40;65.80;;;;;;4958883;28;20034;-73
2021/07/10 11:05:29;;;;;;;3.50;2.95;;;21.50;66.00;;;;;;4972543;28;20500;-71
2021/07/10 11:08:18;;;;;;;4.10;3.08;;;21.50;65.10;;;;;;4969776;28;20028;-72
2021/07/10 11:10:53;;;;;;;2.70;2.50;;;21.50;66.50;;;;;;4972163;28;20031;-71
2021/07/10 11:13:30;;;;;;;3.58;3.28;;;21.70;67.40;;;;;;4973537;28;20034;-72
2021/07/10 11:16:17;;;;;;;3.97;3.00;;;21.60;64.50;;;;;;4961459;28;20033;-72
2021/07/10 11:19:14;;;;;;;3.20;2.80;;;21.50;63.80;;;;;;4972273;28;20131;-73
2021/07/10 11:21:48;;;;;;;3.17;2.88;;;21.60;65.20;;;;;;4957429;28;20026;-71
2021/07/10 11:24:22;;;;;;;3.55;3.22;;;21.70;63.90;;;;;;4971302;28;20481;-71
2021/07/10 11:26:56;;;;;;;2.70;2.50;;;21.70;63.90;;;;;;4972932;28;20030;-71
2021/07/10 11:29:37;;;;;;;2.97;2.78;;;21.80;64.30;;;;;;4961605;28;20019;-71
2021/07/10 11:32:11;;;;;;;3.25;2.95;;;21.90;68.20;;;;;;4969780;28;20035;-72
2021/07/10 11:34:44;;;;;;;3.60;3.30;;;22.00;63.40;;;;;;4975928;28;20019;-72
2021/07/10 11:37:16;;;;;;;3.50;3.20;;;22.00;65.50;;;;;;4971630;28;20473;-71
2021/07/10 11:39:51;;;;;;;3.45;3.15;;;22.00;62.50;;;;;;4949049;28;20037;-70
2021/07/10 11:42:24;;;;;;;3.20;2.92;;;22.00;64.10;;;;;;4970521;28;20026;-72
2021/07/10 11:44:54;;;;;;;3.25;3.00;;;22.00;65.70;;;;;;4973596;28;20114;-72
2021/07/10 11:47:41;;;;;;;4.28;3.20;;;22.10;67.40;;;;;;4978590;28;20405;-71
2021/07/10 11:50:18;;;;;;;3.13;2.83;;;22.10;64.00;;;;;;4971580;28;20485;-72
2021/07/10 11:53:05;;;;;;;4.65;3.00;;;22.20;65.00;;;;;;4967666;28;20041;-72
2021/07/10 11:55:34;;;;;;;3.40;3.10;;;22.00;63.00;;;;;;4970219;28;20397;-72
2021/07/10 11:58:09;;;;;;;3.00;2.80;;;22.00;62.20;;;;;;4961694;28;20039;-72
2021/07/10 12:00:35;;;;;;;5.55;3.22;;;22.10;63.40;;;;;;4967164;28;20031;-72
2021/07/10 12:03:02;;;;;;;3.75;3.05;;;22.10;63.60;;;;;;4957929;28;20029;-72
2021/07/10 12:05:30;;;;;;;3.38;3.08;;;22.20;69.20;;;;;;4971114;28;20028;-72
2021/07/10 12:07:58;;;;;;;3.78;2.80;;;22.30;66.20;;;;;;4971643;28;20026;-73
2021/07/10 12:10:35;;;;;;;5.03;2.92;;;22.40;64.30;;;;;;4954481;28;20030;-72
2021/07/10 12:13:05;;;;;;;3.50;3.20;;;22.40;65.90;;;;;;4972572;28;20026;-72
2021/07/10 12:15:40;;;;;;;5.03;3.22;;;22.30;63.10;;;;;;4959780;28;20441;-72
2021/07/10 12:18:09;;;;;;;3.10;2.63;;;22.20;63.60;;;;;;4955985;28;20033;-72
2021/07/10 12:20:53;;;;;;;2.85;2.65;;;22.20;63.60;;;;;;4975948;28;20122;-72
2021/07/10 12:23:24;;;;;;;3.17;2.90;;;22.20;61.80;;;;;;4953094;28;20030;-72
2021/07/10 12:25:58;;;;;;;5.57;2.85;;;22.20;62.20;;;;;;4954246;28;20026;-72
2021/07/10 12:28:40;;;;;;;4.47;2.83;;;22.20;64.20;;;;;;4965882;28;20030;-71
2021/07/10 12:31:26;;;;;;;2.78;2.47;;;22.10;61.50;;;;;;4952764;28;20035;-72
2021/07/10 12:33:57;;;;;;;5.63;2.63;;;22.20;64.90;;;;;;4978142;28;20405;-72
2021/07/10 12:36:25;;;;;;;4.85;2.58;;;22.20;63.10;;;;;;4970844;28;20019;-71
2021/07/10 12:39:01;;;;;;;3.30;2.60;;;22.20;64.00;;;;;;4970870;28;20022;-72
2021/07/10 12:41:29;;;;;;;2.83;2.63;;;22.30;61.00;;;;;;4969351;28;20066;-72
2021/07/10 12:44:25;;;;;;;3.00;2.70;;;22.30;64.30;;;;;;4953093;28;20029;-72
2021/07/10 12:47:15;;;;;;;2.75;2.55;;;22.40;64.90;;;;;;4966191;28;20057;-72
2021/07/10 12:49:45;;;;;;;3.13;2.75;;;22.40;62.50;;;;;;4954487;28;20031;-73